Time;durP1;ratioP1;P1;durP2;ratioP2;P2;SDS_P1;SDS_P2;PMS_P1;PMS_P2;Temp;Humidity;BMP_temperature;BMP_pressure;BME280_temperature;BME280_humidity;BME280_pressure;Samples;Min_cycle;Max_cycle;Signal;HPM_P1;HPM_P2
2021/10/25 00:00:17;;;;;;;51.33;13.20;;;7.40;99.90;;;;;;5071557;28;20524;-85
2021/10/25 00:02:45;;;;;;;49.10;12.33;;;7.40;99.90;;;;;;5076759;28;20494;-86
2021/10/25 00:05:12;;;;;;;52.70;13.33;;;7.30;99.90;;;;;;5075281;28;20861;-86
2021/10/25 00:07:39;;;;;;;50.00;12.73;;;7.30;99.90;;;;;;5075730;28;20458;-86
2021/10/25 00:10:07;;;;;;;50.23;10.83;;;7.30;99.90;;;;;;5072615;28;20456;-82
2021/10/25 00:12:35;;;;;;;52.73;11.90;;;7.30;99.90;;;;;;5071734;28;20446;-83
2021/10/25 00:15:02;;;;;;;48.23;11.23;;;7.20;99.90;;;;;;5075437;28;20566;-84
2021/10/25 00:17:30;;;;;;;47.70;9.20;;;7.20;99.90;;;;;;5092533;28;20451;-85
2021/10/25 00:19:58;;;;;;;50.40;12.90;;;7.20;99.90;;;;;;5074050;28;20852;-85
2021/10/25 00:22:25;;;;;;;52.07;11.83;;;7.10;99.90;;;;;;5080480;28;20520;-84
2021/10/25 00:24:52;;;;;;;49.20;10.97;;;7.10;99.90;;;;;;5084653;28;20512;-84
2021/10/25 00:27:19;;;;;;;51.93;14.03;;;7.10;99.90;;;;;;5077344;28;20539;-84
2021/10/25 00:29:46;;;;;;;50.60;11.47;;;7.10;99.90;;;;;;5085464;28;20458;-87
2021/10/25 00:32:13;;;;;;;51.67;13.40;;;7.10;99.90;;;;;;5070623;28;20458;-86
2021/10/25 00:34:40;;;;;;;51.30;12.53;;;7.10;99.90;;;;;;5085192;28;20454;-87
2021/10/25 00:37:08;;;;;;;50.53;10.10;;;7.10;99.90;;;;;;5083720;28;20510;-85
2021/10/25 00:39:35;;;;;;;50.90;12.00;;;7.10;99.90;;;;;;5087467;28;20454;-85
2021/10/25 00:42:03;;;;;;;48.30;10.00;;;7.10;99.90;;;;;;5072845;28;20494;-88
2021/10/25 00:44:31;;;;;;;51.70;10.53;;;7.10;99.90;;;;;;5085697;28;20538;-87
2021/10/25 00:46:59;;;;;;;50.13;11.40;;;7.00;99.90;;;;;;5082718;28;20484;-87
2021/10/25 00:49:26;;;;;;;51.83;14.30;;;7.00;99.90;;;;;;5084568;28;20465;-87
2021/10/25 00:51:54;;;;;;;54.00;11.60;;;7.00;99.90;;;;;;5085118;28;21006;-87
2021/10/25 00:54:22;;;;;;;52.47;14.07;;;7.00;99.90;;;;;;5081535;28;20950;-88
2021/10/25 00:56:50;;;;;;;48.73;11.10;;;7.00;99.90;;;;;;5086608;28;20469;-88
2021/10/25 00:59:17;;;;;;;52.70;12.10;;;6.90;99.90;;;;;;5083354;28;20457;-87
2021/10/25 01:01:44;;;;;;;51.40;11.50;;;6.90;99.90;;;;;;5081951;28;20469;-86
2021/10/25 01:04:11;;;;;;;50.33;13.13;;;6.90;99.90;;;;;;5083031;28;20546;-87
2021/10/25 01:06:38;;;;;;;52.67;13.27;;;7.00;99.90;;;;;;5081902;28;20492;-87
2021/10/25 01:09:07;;;;;;;52.73;11.10;;;6.90;99.90;;;;;;5077229;28;20471;-89
2021/10/25 01:11:36;;;;;;;49.53;12.73;;;6.90;99.90;;;;;;5075128;28;20457;-86
2021/10/25 01:14:03;;;;;;;50.40;11.13;;;6.90;99.90;;;;;;5081311;28;20462;-87
2021/10/25 01:16:30;;;;;;;49.57;11.10;;;6.90;99.90;;;;;;5079875;28;20488;-88
2021/10/25 01:18:57;;;;;;;49.70;9.83;;;6.90;99.90;;;;;;5074901;28;20453;-86
2021/10/25 01:21:26;;;;;;;49.60;13.10;;;6.90;99.90;;;;;;5062939;28;20447;-86
2021/10/25 01:23:54;;;;;;;48.90;11.00;;;6.90;99.90;;;;;;5081722;28;20497;-87
2021/10/25 01:26:22;;;;;;;49.50;13.23;;;6.90;99.90;;;;;;5077595;28;20514;-90
2021/10/25 01:28:49;;;;;;;50.63;12.67;;;6.90;99.90;;;;;;5080054;28;20468;-88
2021/10/25 01:31:16;;;;;;;50.97;12.53;;;6.90;99.90;;;;;;5072500;28;20467;-88
2021/10/25 01:33:45;;;;;;;50.50;11.40;;;6.90;99.90;;;;;;5084023;28;20461;-87
2021/10/25 01:36:12;;;;;;;49.43;9.50;;;6.90;99.90;;;;;;5068346;28;20496;-87
2021/10/25 01:38:40;;;;;;;50.73;11.30;;;6.90;99.90;;;;;;5075808;28;20459;-87
2021/10/25 01:41:07;;;;;;;49.13;10.70;;;6.90;99.90;;;;;;5064611;28;20455;-87
2021/10/25 01:43:35;;;;;;;49.13;11.70;;;6.90;99.90;;;;;;5078228;28;20563;-87
2021/10/25 01:46:02;;;;;;;49.60;10.90;;;6.90;99.90;;;;;;5067965;28;20481;-87
2021/10/25 01:48:28;;;;;;;52.77;10.07;;;6.90;99.90;;;;;;5068098;28;20455;-87
2021/10/25 01:50:55;;;;;;;48.00;9.23;;;6.90;99.90;;;;;;5077072;28;20972;-87
2021/10/25 01:53:22;;;;;;;50.67;11.20;;;6.90;99.90;;;;;;5071034;28;20518;-87
2021/10/25 01:55:53;;;;;;;49.20;10.70;;;7.00;99.90;;;;;;5072163;28;20479;-87
2021/10/25 01:58:20;;;;;;;50.00;11.50;;;7.00;99.90;;;;;;5081250;28;20524;-87
2021/10/25 02:00:47;;;;;;;50.87;12.90;;;7.00;99.90;;;;;;5077516;28;20467;-87
2021/10/25 02:03:14;;;;;;;51.20;10.80;;;7.00;99.90;;;;;;5076309;28;20494;-85
2021/10/25 02:05:41;;;;;;;51.10;12.93;;;7.00;99.90;;;;;;5075882;28;20496;-86
2021/10/25 02:08:08;;;;;;;54.10;12.13;;;7.00;99.90;;;;;;5074679;28;20458;-85
2021/10/25 02:10:35;;;;;;;50.20;9.53;;;7.00;99.90;;;;;;5076634;28;20462;-86
2021/10/25 02:13:03;;;;;;;48.00;9.73;;;7.00;99.90;;;;;;5072256;28;20450;-85
2021/10/25 02:15:30;;;;;;;51.33;10.60;;;7.00;99.90;;;;;;5078848;28;20474;-85
2021/10/25 02:17:57;;;;;;;48.93;11.50;;;7.00;99.90;;;;;;5075969;28;20470;-85
2021/10/25 02:20:26;;;;;;;48.50;9.00;;;7.10;99.90;;;;;;5075362;28;20477;-85
2021/10/25 02:22:54;;;;;;;48.30;10.17;;;7.00;99.90;;;;;;5077279;28;20844;-85
2021/10/25 02:25:21;;;;;;;49.43;10.60;;;7.00;99.90;;;;;;5087651;28;20477;-84
2021/10/25 02:27:48;;;;;;;50.20;11.60;;;7.00;99.90;;;;;;5079268;28;21086;-84
2021/10/25 02:30:17;;;;;;;50.70;10.30;;;7.10;99.90;;;;;;5079654;28;20447;-87
2021/10/25 02:32:46;;;;;;;48.27;11.70;;;7.10;99.90;;;;;;5082048;28;20534;-85
2021/10/25 02:35:13;;;;;;;47.73;10.80;;;7.10;99.90;;;;;;5075245;28;20507;-85
2021/10/25 02:37:39;;;;;;;47.87;9.60;;;7.10;99.90;;;;;;5077843;28;20455;-85
2021/10/25 02:40:07;;;;;;;49.37;10.30;;;7.10;99.90;;;;;;5073925;28;20467;-84
2021/10/25 02:42:34;;;;;;;49.00;9.87;;;7.10;99.90;;;;;;5077092;28;20537;-85
2021/10/25 02:45:01;;;;;;;47.33;9.07;;;7.20;99.90;;;;;;5069925;28;20457;-84
2021/10/25 02:47:29;;;;;;;48.90;11.20;;;7.20;99.90;;;;;;5081357;28;20473;-85
2021/10/25 02:49:56;;;;;;;49.20;10.10;;;7.20;99.90;;;;;;5079782;28;20451;-84
2021/10/25 02:52:23;;;;;;;49.33;10.20;;;7.20;99.90;;;;;;5078725;28;20527;-85
2021/10/25 02:54:50;;;;;;;48.90;10.00;;;7.20;99.90;;;;;;5067956;28;20464;-84
2021/10/25 02:57:17;;;;;;;50.07;10.20;;;7.30;99.90;;;;;;5069207;28;20467;-85
2021/10/25 02:59:44;;;;;;;50.13;11.30;;;7.20;99.90;;;;;;5073210;28;20469;-84
2021/10/25 03:02:12;;;;;;;48.93;10.00;;;7.30;99.90;;;;;;5064095;28;20459;-84
2021/10/25 03:04:41;;;;;;;48.00;8.23;;;7.30;99.90;;;;;;5087063;28;20498;-83
2021/10/25 03:07:07;;;;;;;47.80;9.00;;;7.20;99.90;;;;;;5091617;28;20480;-84
2021/10/25 03:09:34;;;;;;;47.17;8.90;;;7.20;99.90;;;;;;5081687;28;20476;-84
2021/10/25 03:12:01;;;;;;;48.37;10.67;;;7.20;99.90;;;;;;5071229;28;20471;-84
2021/10/25 03:14:28;;;;;;;48.10;8.23;;;7.20;99.90;;;;;;5072244;28;20452;-85
2021/10/25 03:16:55;;;;;;;48.47;9.83;;;7.20;99.90;;;;;;5070970;28;20552;-84
2021/10/25 03:19:23;;;;;;;49.10;10.30;;;7.30;99.90;;;;;;5077818;28;20439;-84
2021/10/25 03:21:51;;;;;;;47.87;8.47;;;7.30;99.90;;;;;;5077600;28;21012;-84
2021/10/25 03:24:19;;;;;;;48.30;9.37;;;7.30;99.90;;;;;;5078492;28;20552;-84
2021/10/25 03:26:46;;;;;;;48.63;9.50;;;7.20;99.90;;;;;;5076968;28;20470;-84
2021/10/25 03:29:13;;;;;;;46.73;8.10;;;7.20;99.90;;;;;;5062695;28;20880;-84
2021/10/25 03:31:40;;;;;;;47.43;7.77;;;7.30;99.90;;;;;;5065835;28;20462;-84
2021/10/25 03:34:07;;;;;;;49.90;9.23;;;7.20;99.90;;;;;;5076226;28;20454;-84
2021/10/25 03:36:35;;;;;;;49.73;8.53;;;7.30;99.90;;;;;;5075668;28;20479;-84
2021/10/25 03:39:05;;;;;;;48.60;8.10;;;7.30;99.90;;;;;;5077126;28;20497;-84
2021/10/25 03:41:35;;;;;;;53.23;10.53;;;7.30;99.90;;;;;;5075474;28;20486;-84
2021/10/25 03:44:06;;;;;;;47.87;8.10;;;7.20;99.90;;;;;;5071063;28;20574;-84
2021/10/25 03:46:37;;;;;;;46.87;9.13;;;7.20;99.90;;;;;;5071136;28;20544;-84
2021/10/25 03:49:09;;;;;;;48.90;8.53;;;7.30;99.90;;;;;;5065570;28;20469;-84
2021/10/25 03:51:38;;;;;;;50.93;10.43;;;7.20;99.90;;;;;;5077209;28;20451;-85
2021/10/25 03:54:19;;;;;;;47.80;8.17;;;7.20;99.90;;;;;;5074453;28;20466;-85
2021/10/25 03:59:46;;;;;;;50.83;9.30;;;7.20;99.90;;;;;;5041249;28;20431;-84
2021/10/25 04:02:29;;;;;;;47.93;8.70;;;7.20;99.90;;;;;;5076194;28;20462;-86
2021/10/25 04:27:12;;;;;;;48.63;10.30;;;7.20;99.90;;;;;;5067644;28;20481;-85
2021/10/25 04:29:40;;;;;;;50.37;9.13;;;7.20;99.90;;;;;;5065783;28;20442;-84
2021/10/25 04:32:08;;;;;;;47.50;8.80;;;7.20;99.90;;;;;;5076583;28;20453;-84
2021/10/25 04:34:35;;;;;;;46.77;8.00;;;7.20;99.90;;;;;;5079338;28;20800;-84
2021/10/25 04:37:02;;;;;;;49.83;10.00;;;7.20;99.90;;;;;;5081160;28;20477;-84
2021/10/25 04:39:29;;;;;;;49.63;9.27;;;7.30;99.90;;;;;;5083169;28;20789;-84
2021/10/25 04:41:57;;;;;;;46.97;10.43;;;7.30;99.90;;;;;;5078554;28;20458;-84
2021/10/25 04:44:26;;;;;;;48.80;9.60;;;7.30;99.90;;;;;;5067271;28;20844;-84
2021/10/25 04:46:53;;;;;;;46.67;8.60;;;7.30;99.90;;;;;;5067690;28;20480;-85
2021/10/25 04:49:20;;;;;;;47.87;8.53;;;7.30;99.90;;;;;;5071594;28;20464;-84
2021/10/25 04:51:46;;;;;;;47.10;8.43;;;7.30;99.90;;;;;;5062858;28;20466;-83
2021/10/25 04:54:13;;;;;;;49.27;8.63;;;7.30;99.90;;;;;;5059090;28;20457;-83
2021/10/25 04:56:40;;;;;;;45.53;7.90;;;7.30;99.90;;;;;;5065354;28;20528;-84
2021/10/25 04:59:08;;;;;;;50.30;10.30;;;7.20;99.90;;;;;;5059770;28;20455;-82
2021/10/25 05:01:35;;;;;;;49.87;9.90;;;7.30;99.90;;;;;;5057682;28;20451;-81
2021/10/25 05:04:02;;;;;;;50.30;11.20;;;7.30;99.90;;;;;;5076909;28;20481;-79
2021/10/25 05:06:29;;;;;;;50.13;9.80;;;7.30;99.90;;;;;;5070101;28;20627;-84
2021/10/25 05:08:55;;;;;;;51.03;10.17;;;7.30;99.90;;;;;;5072148;28;20444;-83
2021/10/25 05:11:24;;;;;;;51.53;9.90;;;7.30;99.90;;;;;;5070511;28;20458;-83
2021/10/25 05:13:51;;;;;;;50.87;11.00;;;7.30;99.90;;;;;;5071642;28;20458;-84
2021/10/25 05:16:19;;;;;;;50.90;9.30;;;7.30;99.90;;;;;;5066988;28;20843;-83
2021/10/25 05:18:46;;;;;;;51.90;10.90;;;7.20;99.90;;;;;;5068252;28;20457;-83
2021/10/25 05:21:13;;;;;;;53.13;10.80;;;7.20;99.90;;;;;;5070947;28;20462;-84
2021/10/25 05:23:40;;;;;;;50.20;9.97;;;7.30;99.90;;;;;;5068154;28;20486;-83
2021/10/25 05:26:07;;;;;;;49.10;8.90;;;7.20;99.90;;;;;;5070826;28;20550;-83
2021/10/25 05:28:33;;;;;;;49.40;8.90;;;7.20;99.90;;;;;;5066865;28;20447;-84
2021/10/25 05:31:01;;;;;;;48.00;9.27;;;7.20;99.90;;;;;;5068971;28;20790;-84
2021/10/25 05:33:29;;;;;;;47.83;9.67;;;7.20;99.90;;;;;;5068266;28;20453;-82
2021/10/25 05:35:56;;;;;;;49.50;9.47;;;7.20;99.90;;;;;;5070816;28;20477;-84
2021/10/25 05:38:23;;;;;;;47.43;9.03;;;7.20;99.90;;;;;;5081480;28;20542;-84
2021/10/25 05:40:50;;;;;;;49.30;11.20;;;7.20;99.90;;;;;;5075750;28;20453;-84
2021/10/25 05:43:17;;;;;;;51.23;9.37;;;7.20;99.90;;;;;;5069155;28;20466;-82
2021/10/25 05:45:43;;;;;;;48.07;8.53;;;7.20;99.90;;;;;;5069091;28;20495;-83
2021/10/25 05:48:10;;;;;;;48.27;10.13;;;7.10;99.90;;;;;;5064763;28;20541;-87
2021/10/25 05:50:39;;;;;;;47.70;9.10;;;7.20;99.90;;;;;;5070341;28;20905;-85
2021/10/25 05:53:06;;;;;;;50.23;8.17;;;7.20;99.90;;;;;;5067134;28;20530;-83
2021/10/25 05:55:33;;;;;;;48.90;10.60;;;7.20;99.90;;;;;;5069834;28;20555;-84
2021/10/25 05:58:00;;;;;;;51.23;11.53;;;7.20;99.90;;;;;;5077454;28;20473;-83
2021/10/25 06:00:29;;;;;;;48.60;10.17;;;7.20;99.90;;;;;;5077171;28;20455;-82
2021/10/25 06:02:57;;;;;;;49.20;9.90;;;7.20;99.90;;;;;;5074230;28;20479;-85
2021/10/25 06:05:27;;;;;;;50.10;10.00;;;7.10;99.90;;;;;;5077311;28;20496;-83
2021/10/25 06:07:55;;;;;;;49.23;11.00;;;7.10;99.90;;;;;;5077802;28;20462;-84
2021/10/25 06:10:26;;;;;;;50.60;10.50;;;7.10;99.90;;;;;;5075263;28;20458;-84
2021/10/25 06:12:56;;;;;;;48.40;10.33;;;7.10;99.90;;;;;;5076145;28;20461;-84
2021/10/25 06:15:24;;;;;;;51.07;7.60;;;7.20;99.90;;;;;;5072830;28;20857;-83
2021/10/25 06:17:55;;;;;;;52.50;10.80;;;7.10;99.90;;;;;;5072451;28;20447;-84
2021/10/25 06:20:24;;;;;;;50.93;10.40;;;7.10;99.90;;;;;;5071810;28;20503;-84
2021/10/25 06:22:50;;;;;;;47.73;9.03;;;7.10;99.90;;;;;;5083049;28;20451;-84
2021/10/25 06:25:20;;;;;;;50.53;10.43;;;7.10;99.90;;;;;;5087511;28;20485;-84
2021/10/25 06:27:47;;;;;;;48.33;8.23;;;7.10;99.90;;;;;;5082992;28;20466;-83
2021/10/25 06:30:16;;;;;;;49.23;10.33;;;7.10;99.90;;;;;;5080261;28;20461;-83
2021/10/25 06:32:43;;;;;;;50.90;11.17;;;7.10;99.90;;;;;;5071859;28;20465;-83
2021/10/25 06:35:13;;;;;;;50.17;9.33;;;7.10;99.90;;;;;;5069805;28;20468;-84
2021/10/25 06:37:50;;;;;;;49.63;8.40;;;7.10;99.90;;;;;;5066871;28;20470;-83
2021/10/25 06:40:20;;;;;;;51.40;7.97;;;7.10;99.90;;;;;;5073294;28;21041;-84
2021/10/25 06:42:46;;;;;;;46.23;8.00;;;7.10;99.90;;;;;;5069376;28;20457;-83
2021/10/25 06:45:16;;;;;;;51.73;7.87;;;7.10;99.90;;;;;;5073501;28;20478;-83
2021/10/25 06:47:43;;;;;;;47.43;8.53;;;7.10;99.90;;;;;;5068780;28;20467;-84
2021/10/25 06:50:10;;;;;;;50.60;10.23;;;7.10;99.90;;;;;;5074896;28;20961;-83
2021/10/25 06:52:37;;;;;;;48.20;8.63;;;7.10;99.90;;;;;;5080968;28;20462;-84
2021/10/25 06:55:06;;;;;;;49.10;9.17;;;7.20;99.90;;;;;;5078641;28;20982;-84
2021/10/25 06:57:34;;;;;;;46.80;8.33;;;7.20;99.90;;;;;;5077489;28;20457;-83
2021/10/25 07:00:01;;;;;;;50.03;8.67;;;7.10;99.90;;;;;;5075119;28;20466;-84
2021/10/25 07:02:28;;;;;;;47.80;8.87;;;7.10;99.90;;;;;;5076146;28;20466;-84
2021/10/25 07:04:55;;;;;;;48.67;8.90;;;7.20;99.90;;;;;;5092305;28;20493;-84
2021/10/25 07:07:25;;;;;;;46.70;8.50;;;7.20;99.90;;;;;;5074947;28;21035;-84
2021/10/25 07:09:53;;;;;;;46.27;7.70;;;7.20;99.90;;;;;;5087923;28;20482;-83
2021/10/25 07:12:20;;;;;;;48.43;8.77;;;7.20;99.90;;;;;;5071555;28;20460;-85
2021/10/25 07:14:52;;;;;;;47.53;8.03;;;7.20;99.90;;;;;;5073736;28;20451;-84
2021/10/25 07:17:25;;;;;;;48.40;9.23;;;7.20;99.90;;;;;;5076392;28;20513;-85
2021/10/25 07:20:04;;;;;;;48.07;8.03;;;7.20;99.90;;;;;;5070061;28;20479;-86
2021/10/25 08:01:17;;;;;;;44.20;6.90;;;8.20;99.90;;;;;;5076163;28;20473;-85
2021/10/25 08:04:21;;;;;;;46.93;8.77;;;8.30;99.90;;;;;;5094440;28;20458;-87
2021/10/25 08:06:54;;;;;;;45.83;7.93;;;8.40;99.90;;;;;;5081793;28;20968;-86
2021/10/25 08:09:28;;;;;;;43.07;5.87;;;8.50;99.90;;;;;;5069339;28;20458;-86
2021/10/25 08:11:57;;;;;;;50.93;6.90;;;8.60;99.90;;;;;;5066852;28;20456;-85
2021/10/25 08:14:30;;;;;;;44.43;6.93;;;8.70;99.90;;;;;;5076140;28;20480;-85
2021/10/25 08:16:57;;;;;;;48.00;6.90;;;8.80;99.90;;;;;;5084274;28;20472;-86
2021/10/25 08:19:26;;;;;;;44.40;6.60;;;8.80;99.90;;;;;;5099432;28;20443;-85
2021/10/25 08:21:58;;;;;;;44.80;6.70;;;8.90;99.90;;;;;;5094504;28;20466;-85
2021/10/25 08:24:27;;;;;;;45.30;6.03;;;9.00;99.90;;;;;;5095524;28;20536;-86
2021/10/25 08:26:54;;;;;;;42.73;5.77;;;9.10;99.90;;;;;;5095602;28;20477;-85
2021/10/25 08:29:21;;;;;;;46.23;5.87;;;9.20;99.90;;;;;;5095163;28;20456;-87
2021/10/25 08:31:55;;;;;;;45.90;8.23;;;9.30;99.90;;;;;;5095261;28;20453;-84
2021/10/25 08:34:38;;;;;;;45.00;5.67;;;9.40;99.90;;;;;;5095218;28;20443;-85
2021/10/25 08:39:52;;;;;;;44.93;5.93;;;9.60;99.90;;;;;;5079594;28;20505;-85
2021/10/25 08:42:20;;;;;;;43.97;5.60;;;9.60;99.90;;;;;;5076663;28;20467;-84
2021/10/25 08:44:49;;;;;;;43.80;5.37;;;9.70;99.90;;;;;;5074920;28;20489;-85
2021/10/25 08:47:20;;;;;;;42.13;5.30;;;9.80;99.90;;;;;;5076009;28;20505;-83
2021/10/25 08:49:46;;;;;;;43.70;4.80;;;9.90;99.90;;;;;;5077035;28;20445;-85
2021/10/25 08:52:20;;;;;;;45.47;4.63;;;10.00;99.90;;;;;;5075375;28;20450;-85
2021/10/25 08:54:47;;;;;;;42.43;5.27;;;10.10;99.90;;;;;;5064377;28;20472;-85
2021/10/25 08:57:14;;;;;;;44.93;4.73;;;10.20;99.90;;;;;;5072781;28;20460;-86
2021/10/25 08:59:41;;;;;;;42.47;4.33;;;10.30;99.90;;;;;;5071517;28;20848;-85
2021/10/25 09:02:09;;;;;;;42.37;3.97;;;10.50;99.90;;;;;;5077675;28;20520;-86
2021/10/25 09:04:36;;;;;;;39.50;3.77;;;10.70;99.90;;;;;;5077535;28;20486;-85
2021/10/25 09:07:04;;;;;;;40.80;3.30;;;10.80;99.90;;;;;;5078132;28;20486;-85
2021/10/25 09:09:32;;;;;;;40.00;3.07;;;11.00;99.90;;;;;;5077848;28;20468;-85
2021/10/25 09:12:04;;;;;;;40.17;3.40;;;11.10;99.90;;;;;;5075898;28;20464;-85
2021/10/25 09:14:31;;;;;;;39.10;3.40;;;11.20;99.90;;;;;;5077971;28;20457;-85
2021/10/25 09:17:00;;;;;;;44.77;3.60;;;11.30;99.90;;;;;;5077945;28;20499;-85
2021/10/25 09:19:30;;;;;;;40.40;5.00;;;11.60;99.90;;;;;;5077654;28;20446;-87
2021/10/25 09:22:06;;;;;;;37.87;2.70;;;11.70;99.90;;;;;;5077439;28;20465;-86
2021/10/25 09:24:35;;;;;;;36.60;2.80;;;11.90;99.90;;;;;;5077399;28;20489;-86
2021/10/25 09:27:05;;;;;;;34.80;2.73;;;12.00;99.90;;;;;;5077968;28;20482;-85
2021/10/25 09:29:34;;;;;;;35.47;2.63;;;12.20;99.90;;;;;;5074099;28;20451;-85
2021/10/25 09:32:07;;;;;;;33.87;2.90;;;12.20;99.90;;;;;;5077904;28;20505;-85
2021/10/25 09:34:39;;;;;;;33.20;2.57;;;12.40;99.90;;;;;;5082528;28;20450;-85
2021/10/25 09:37:10;;;;;;;30.90;2.33;;;12.50;99.90;;;;;;5082405;28;20469;-86
2021/10/25 09:39:45;;;;;;;33.97;3.00;;;12.60;99.90;;;;;;5065325;28;20459;-87
2021/10/25 09:45:32;;;;;;;31.83;2.50;;;12.70;99.90;;;;;;5080292;28;20471;-87
2021/10/25 09:50:55;;;;;;;34.27;2.63;;;13.00;99.90;;;;;;5080944;28;20432;-86
2021/10/25 09:53:33;;;;;;;30.60;2.43;;;13.00;99.90;;;;;;5081050;28;20462;-86
2021/10/25 09:56:02;;;;;;;30.60;2.50;;;13.10;99.90;;;;;;5083095;28;20467;-86
2021/10/25 09:58:42;;;;;;;31.80;2.40;;;13.40;99.90;;;;;;5081987;28;20455;-86
2021/10/25 10:01:10;;;;;;;31.27;2.30;;;13.80;99.90;;;;;;5080090;28;20527;-86
2021/10/25 10:03:37;;;;;;;31.97;2.87;;;14.00;99.90;;;;;;5081083;28;20458;-85
2021/10/25 10:06:03;;;;;;;30.80;2.90;;;14.10;99.90;;;;;;5067123;28;20497;-86
2021/10/25 10:08:31;;;;;;;31.70;3.30;;;14.10;99.90;;;;;;5063920;28;20474;-86
2021/10/25 10:10:58;;;;;;;29.60;2.33;;;14.00;99.90;;;;;;5081541;28;20453;-86
2021/10/25 10:13:27;;;;;;;26.77;2.50;;;14.10;99.90;;;;;;5084823;28;20452;-86
2021/10/25 10:15:58;;;;;;;28.80;3.10;;;14.10;99.90;;;;;;5082826;28;20476;-87
2021/10/25 10:18:30;;;;;;;31.70;2.67;;;14.20;99.90;;;;;;5082276;28;20522;-84
2021/10/25 10:21:01;;;;;;;29.97;2.60;;;14.20;99.90;;;;;;5073377;28;20476;-85
2021/10/25 10:23:28;;;;;;;32.17;2.53;;;14.40;99.90;;;;;;5087448;28;20457;-85
2021/10/25 10:25:57;;;;;;;30.50;2.73;;;14.80;99.90;;;;;;5095614;28;20537;-84
2021/10/25 10:28:36;;;;;;;32.23;2.30;;;15.00;99.90;;;;;;5091151;28;20482;-85
2021/10/25 10:31:06;;;;;;;29.67;2.43;;;15.30;99.90;;;;;;5084608;28;20490;-84
2021/10/25 10:33:36;;;;;;;31.43;2.33;;;15.60;99.90;;;;;;5080813;28;20453;-85
2021/10/25 10:36:14;;;;;;;25.17;2.23;;;15.70;99.90;;;;;;5078650;28;20493;-85
2021/10/25 10:38:50;;;;;;;29.37;2.53;;;15.60;99.90;;;;;;5069086;28;20452;-86
2021/10/25 10:41:20;;;;;;;29.03;2.90;;;15.60;99.90;;;;;;5079700;28;20468;-86
2021/10/25 10:44:07;;;;;;;26.40;2.73;;;15.80;99.90;;;;;;5082302;28;20884;-86
2021/10/25 10:46:45;;;;;;;27.80;2.80;;;15.90;99.90;;;;;;5078517;28;20492;-87
2021/10/25 10:49:23;;;;;;;27.33;2.30;;;15.80;99.90;;;;;;5071655;28;20549;-86
2021/10/25 10:52:16;;;;;;;25.90;2.77;;;15.70;99.90;;;;;;5067603;28;20454;-87
2021/10/25 10:54:53;;;;;;;28.53;2.73;;;15.80;99.90;;;;;;5075800;28;20457;-85
2021/10/25 10:57:41;;;;;;;26.80;2.67;;;16.00;99.90;;;;;;5080069;28;20455;-86
2021/10/25 11:00:11;;;;;;;27.03;2.37;;;16.20;99.90;;;;;;5080559;28;20455;-87
2021/10/25 11:02:49;;;;;;;26.70;2.77;;;16.20;99.90;;;;;;5067019;28;20529;-87
2021/10/25 11:05:16;;;;;;;29.10;2.73;;;16.20;99.90;;;;;;5080830;28;20490;-86
2021/10/25 11:07:43;;;;;;;26.97;2.20;;;16.10;99.90;;;;;;5080819;28;20558;-86
2021/10/25 11:10:11;;;;;;;27.40;2.83;;;16.00;99.90;;;;;;5076632;28;20631;-86
2021/10/25 11:12:43;;;;;;;28.93;3.57;;;16.00;99.90;;;;;;5084283;28;20459;-86
2021/10/25 11:15:15;;;;;;;27.67;2.40;;;15.90;99.90;;;;;;5080277;28;20527;-86
2021/10/25 11:17:42;;;;;;;28.23;2.83;;;15.70;99.90;;;;;;5068440;28;20493;-86
2021/10/25 11:20:10;;;;;;;28.60;2.23;;;15.50;99.90;;;;;;5075469;28;20455;-85
2021/10/25 11:22:39;;;;;;;28.93;2.37;;;15.40;99.90;;;;;;5071059;28;20456;-86
2021/10/25 11:25:09;;;;;;;26.77;2.30;;;15.30;99.90;;;;;;5079919;28;20513;-86
2021/10/25 11:27:39;;;;;;;26.20;2.50;;;15.20;99.90;;;;;;5080276;28;20455;-86
2021/10/25 11:30:09;;;;;;;26.50;2.93;;;15.30;99.90;;;;;;5067184;28;20485;-87
2021/10/25 11:32:39;;;;;;;29.90;2.37;;;15.20;99.90;;;;;;5083270;28;20536;-86
2021/10/25 11:35:09;;;;;;;29.50;2.60;;;15.30;99.90;;;;;;5072842;28;20995;-86
2021/10/25 11:37:36;;;;;;;27.50;2.40;;;15.30;99.90;;;;;;5069364;28;20488;-85
2021/10/25 11:40:07;;;;;;;27.60;2.23;;;15.40;99.90;;;;;;5071794;28;20466;-84
2021/10/25 11:42:36;;;;;;;28.60;2.23;;;15.50;99.90;;;;;;5065913;28;20498;-85
2021/10/25 11:45:05;;;;;;;30.57;2.20;;;15.40;99.90;;;;;;5060901;28;20463;-86
2021/10/25 11:47:34;;;;;;;27.67;2.50;;;15.40;99.90;;;;;;5074412;28;21163;-85
2021/10/25 11:50:06;;;;;;;28.10;2.60;;;15.40;99.90;;;;;;5056123;28;20964;-86
2021/10/25 11:52:41;;;;;;;28.07;2.83;;;15.50;99.90;;;;;;5054954;28;20480;-85
2021/10/25 11:55:09;;;;;;;28.27;3.13;;;15.80;99.90;;;;;;5070452;28;20481;-85
2021/10/25 11:57:36;;;;;;;27.13;2.47;;;16.00;99.90;;;;;;5074942;28;20540;-85
2021/10/25 12:00:06;;;;;;;26.30;2.50;;;16.20;99.90;;;;;;5077748;28;20454;-87
2021/10/25 12:02:36;;;;;;;25.80;2.30;;;16.30;99.90;;;;;;5080644;28;20448;-86
2021/10/25 12:05:04;;;;;;;26.63;2.30;;;16.50;99.90;;;;;;5077611;28;20967;-83
2021/10/25 12:07:31;;;;;;;28.47;2.60;;;16.20;99.90;;;;;;5075994;28;20936;-85
2021/10/25 12:10:04;;;;;;;29.97;4.40;;;16.30;99.90;;;;;;5076010;28;21197;-84
2021/10/25 12:12:30;;;;;;;26.93;3.07;;;16.20;99.90;;;;;;5075214;28;20470;-85
2021/10/25 12:15:01;;;;;;;28.10;2.83;;;16.40;99.90;;;;;;5076641;28;20466;-84
2021/10/25 12:17:31;;;;;;;27.90;2.53;;;16.70;99.90;;;;;;5067130;28;20490;-84
2021/10/25 12:19:58;;;;;;;34.53;2.53;;;16.80;99.90;;;;;;5073299;28;20446;-86
2021/10/25 12:22:27;;;;;;;28.10;2.53;;;16.80;99.90;;;;;;5077287;28;20455;-86
2021/10/25 12:24:56;;;;;;;25.40;2.77;;;17.00;99.90;;;;;;5076423;28;20549;-86
2021/10/25 12:27:30;;;;;;;26.33;2.60;;;17.50;99.90;;;;;;5078010;28;20503;-84
2021/10/25 12:30:04;;;;;;;26.23;2.60;;;17.50;99.90;;;;;;5078189;28;20458;-85
2021/10/25 12:32:31;;;;;;;25.93;2.07;;;17.20;99.90;;;;;;5065222;28;20468;-85
2021/10/25 12:35:00;;;;;;;25.93;2.30;;;17.10;99.90;;;;;;5074971;28;20467;-86
2021/10/25 12:37:30;;;;;;;24.90;3.10;;;17.10;99.90;;;;;;5078988;28;20537;-86
2021/10/25 12:39:57;;;;;;;24.40;2.10;;;16.90;99.90;;;;;;5060201;28;20473;-88
2021/10/25 12:42:26;;;;;;;26.67;3.97;;;16.90;99.90;;;;;;5057541;28;20460;-86
2021/10/25 12:44:55;;;;;;;26.23;1.90;;;16.60;99.90;;;;;;5072562;28;20523;-86
2021/10/25 12:47:24;;;;;;;26.63;1.90;;;16.50;99.90;;;;;;5081978;28;20486;-86
2021/10/25 12:49:52;;;;;;;26.10;2.03;;;16.50;99.90;;;;;;5079075;28;20500;-85
2021/10/25 12:52:19;;;;;;;27.80;2.53;;;16.30;99.90;;;;;;5108326;22;20448;-84
2021/10/25 12:54:48;;;;;;;27.80;2.77;;;16.20;99.90;;;;;;5057460;28;20457;-81
2021/10/25 12:57:23;;;;;;;27.63;2.37;;;16.20;99.90;;;;;;5055187;28;20454;-81
2021/10/25 13:00:05;;;;;;;27.13;1.80;;;16.10;99.90;;;;;;5057145;28;20515;-81
2021/10/25 13:02:39;;;;;;;26.40;2.20;;;16.00;99.90;;;;;;5064938;28;20529;-80
2021/10/25 13:05:09;;;;;;;26.20;2.93;;;16.10;99.90;;;;;;5064859;28;20508;-82
2021/10/25 13:07:36;;;;;;;26.77;2.07;;;15.90;99.90;;;;;;5049305;28;20552;-82
2021/10/25 13:10:09;;;;;;;25.63;2.03;;;16.00;99.90;;;;;;5044195;28;21000;-82
2021/10/25 13:12:36;;;;;;;27.33;2.20;;;16.00;99.90;;;;;;5047031;28;20477;-83
2021/10/25 13:15:03;;;;;;;26.03;2.20;;;16.10;99.90;;;;;;5064679;28;20498;-83
2021/10/25 13:17:30;;;;;;;27.60;2.43;;;16.10;99.90;;;;;;5046926;28;20925;-81
2021/10/25 13:19:57;;;;;;;30.40;2.53;;;16.00;99.90;;;;;;5059650;28;20477;-80
2021/10/25 13:22:24;;;;;;;28.93;2.30;;;15.90;99.90;;;;;;5063839;28;20485;-82
2021/10/25 13:24:51;;;;;;;26.77;2.37;;;15.90;99.90;;;;;;5063682;28;20445;-82
2021/10/25 13:27:19;;;;;;;27.00;1.80;;;16.00;99.90;;;;;;5054916;28;20849;-81
2021/10/25 13:29:46;;;;;;;27.47;2.00;;;15.90;99.90;;;;;;5057596;28;20545;-80
2021/10/25 13:32:14;;;;;;;28.07;1.80;;;15.90;99.90;;;;;;5064217;28;20521;-83
2021/10/25 13:34:40;;;;;;;29.63;2.30;;;15.90;99.90;;;;;;5065420;28;20821;-81
2021/10/25 13:37:07;;;;;;;29.03;2.40;;;15.90;99.90;;;;;;5062720;28;20455;-82
2021/10/25 13:39:34;;;;;;;28.17;2.37;;;15.90;99.90;;;;;;5043575;28;20462;-81
2021/10/25 13:42:01;;;;;;;26.90;2.07;;;15.80;99.90;;;;;;5061561;28;20491;-82
2021/10/25 13:44:29;;;;;;;26.70;2.07;;;15.80;99.90;;;;;;5055260;28;20913;-82
2021/10/25 13:46:56;;;;;;;27.13;2.03;;;15.70;99.90;;;;;;5047873;28;20580;-82
2021/10/25 13:49:24;;;;;;;26.80;2.00;;;15.60;99.90;;;;;;5054253;28;20484;-81
2021/10/25 13:51:51;;;;;;;28.07;2.03;;;15.50;99.90;;;;;;5044448;28;20468;-83
2021/10/25 13:54:18;;;;;;;31.60;1.97;;;15.50;99.90;;;;;;5051896;28;21066;-83
2021/10/25 13:56:44;;;;;;;27.90;1.90;;;15.50;99.90;;;;;;5055349;28;20465;-81
2021/10/25 13:59:12;;;;;;;28.70;2.63;;;15.40;99.90;;;;;;5059297;28;20522;-82
2021/10/25 14:01:40;;;;;;;30.90;2.83;;;15.40;99.90;;;;;;5065497;28;20945;-83